createdAt,value
2022-12-09T00:01:12.641Z,10.90
2022-12-09T00:03:40.965Z,10.90
2022-12-09T00:06:16.573Z,10.80
2022-12-09T00:08:44.371Z,10.80
2022-12-09T00:11:12.122Z,10.90
2022-12-09T00:13:39.896Z,10.80
2022-12-09T00:16:09.607Z,10.90
2022-12-09T00:18:37.583Z,10.80
2022-12-09T00:21:32.976Z,10.80
2022-12-09T00:24:03.280Z,10.80
2022-12-09T00:26:30.729Z,10.80
2022-12-09T00:28:58.752Z,10.90
2022-12-09T00:31:28.829Z,10.80
2022-12-09T00:33:58.391Z,10.80
2022-12-09T00:36:26.738Z,10.80
2022-12-09T00:38:55.474Z,10.80
2022-12-09T00:41:24.819Z,10.80
2022-12-09T00:43:52.525Z,10.80
2022-12-09T00:46:20.188Z,10.80
2022-12-09T00:48:48.159Z,10.80
2022-12-09T00:51:18.545Z,10.80
2022-12-09T00:53:47.517Z,10.80
2022-12-09T00:56:15.882Z,10.80
2022-12-09T00:58:43.419Z,10.80
2022-12-09T01:01:11.121Z,10.80
2022-12-09T01:03:39.360Z,10.80
2022-12-09T01:06:21.110Z,10.80
2022-12-09T01:08:49.235Z,10.80
2022-12-09T01:11:19.804Z,10.80
2022-12-09T01:13:49.950Z,10.70
2022-12-09T01:16:20.540Z,10.80
2022-12-09T01:18:49.374Z,10.70
2022-12-09T01:21:17.418Z,10.70
2022-12-09T01:23:45.209Z,10.70
2022-12-09T01:26:12.788Z,10.70
2022-12-09T01:28:41.018Z,10.70
2022-12-09T01:31:11.170Z,10.70
2022-12-09T01:33:39.519Z,10.70
2022-12-09T01:36:13.800Z,10.70
2022-12-09T01:38:41.971Z,10.70
2022-12-09T01:41:09.500Z,10.70
2022-12-09T01:43:38.838Z,10.70
2022-12-09T01:46:06.965Z,10.70
2022-12-09T01:48:39.169Z,10.70
2022-12-09T01:51:19.928Z,10.70
2022-12-09T01:53:50.856Z,10.70
2022-12-09T01:56:32.330Z,10.70
2022-12-09T01:59:05.281Z,10.70
2022-12-09T02:01:33.770Z,10.70
2022-12-09T02:04:02.306Z,10.70
2022-12-09T02:06:30.090Z,10.70
2022-12-09T02:09:02.084Z,10.70
2022-12-09T02:12:02.611Z,10.70
2022-12-09T02:14:40.396Z,10.70
2022-12-09T02:17:46.377Z,10.70
2022-12-09T02:20:18.536Z,10.70
2022-12-09T02:22:59.379Z,10.70
2022-12-09T02:25:38.872Z,10.70
2022-12-09T02:28:09.586Z,10.70
2022-12-09T02:30:58.314Z,10.70
2022-12-09T02:33:39.856Z,10.70
2022-12-09T02:36:18.185Z,10.70
2022-12-09T02:38:50.070Z,10.70
2022-12-09T02:41:21.900Z,10.70
2022-12-09T02:43:52.032Z,10.70
2022-12-09T02:46:25.851Z,10.70
2022-12-09T02:48:57.397Z,10.70
2022-12-09T02:51:28.001Z,10.70
2022-12-09T02:54:06.404Z,10.70
2022-12-09T02:56:36.351Z,10.70
2022-12-09T02:59:04.392Z,10.70
2022-12-09T03:01:37.622Z,10.70
2022-12-09T03:04:09.135Z,10.70
2022-12-09T03:06:42.641Z,10.70
2022-12-09T03:09:13.810Z,10.70
2022-12-09T03:11:42.027Z,10.70
2022-12-09T03:14:15.321Z,10.70
2022-12-09T03:16:58.121Z,10.70
2022-12-09T03:19:31.403Z,10.70
2022-12-09T03:22:02.801Z,10.70
2022-12-09T03:24:38.170Z,10.70
2022-12-09T03:27:10.375Z,10.70
2022-12-09T03:29:42.724Z,10.70
2022-12-09T03:32:12.653Z,10.70
2022-12-09T03:34:44.891Z,10.70
2022-12-09T03:37:17.079Z,10.70
2022-12-09T03:39:46.408Z,10.70
2022-12-09T03:42:23.977Z,10.70
2022-12-09T03:45:01.126Z,10.70
2022-12-09T03:47:32.590Z,10.70
2022-12-09T03:50:00.051Z,10.70
2022-12-09T03:52:34.870Z,10.70
2022-12-09T03:55:09.394Z,10.70
2022-12-09T03:57:40.493Z,10.70
2022-12-09T04:00:09.425Z,10.70
2022-12-09T04:02:40.489Z,10.60
2022-12-09T04:05:08.949Z,10.70
2022-12-09T04:07:37.107Z,10.70
2022-12-09T04:10:06.059Z,10.70
2022-12-09T04:12:34.037Z,10.70
2022-12-09T04:15:01.351Z,10.70
2022-12-09T04:17:28.908Z,10.60
2022-12-09T04:19:58.041Z,10.70
2022-12-09T04:22:25.686Z,10.70
2022-12-09T04:24:54.863Z,10.70
2022-12-09T04:27:22.230Z,10.70
2022-12-09T04:29:49.926Z,10.80
2022-12-09T04:32:17.717Z,10.90
2022-12-09T04:34:45.476Z,10.80
2022-12-09T04:37:13.768Z,10.80
2022-12-09T04:39:41.906Z,10.70
2022-12-09T04:42:09.590Z,10.70
2022-12-09T04:44:37.260Z,10.70
2022-12-09T04:47:04.903Z,10.70
2022-12-09T04:49:32.335Z,10.70
2022-12-09T04:52:00.122Z,10.70
2022-12-09T04:54:30.487Z,10.70
2022-12-09T04:56:57.843Z,10.70
2022-12-09T04:59:25.166Z,10.70
2022-12-09T05:01:53.505Z,10.70
2022-12-09T05:04:21.503Z,10.70
2022-12-09T05:06:49.452Z,10.60
2022-12-09T05:09:17.061Z,10.60
2022-12-09T05:11:44.917Z,10.60
2022-12-09T05:14:12.493Z,10.60
2022-12-09T05:16:40.546Z,10.60
2022-12-09T05:19:08.443Z,10.60
2022-12-09T05:21:36.316Z,10.60
2022-12-09T05:24:04.436Z,10.60
2022-12-09T05:26:32.266Z,10.60
2022-12-09T05:29:00.120Z,10.60
2022-12-09T05:31:27.737Z,10.60
2022-12-09T05:33:55.665Z,10.60
2022-12-09T05:36:25.540Z,10.60
2022-12-09T05:38:54.700Z,10.60
2022-12-09T05:41:23.662Z,10.60
2022-12-09T05:43:51.937Z,10.60
2022-12-09T05:46:20.128Z,10.60
2022-12-09T05:48:48.359Z,10.60
2022-12-09T05:51:27.802Z,10.60
2022-12-09T05:53:58.234Z,10.60
2022-12-09T05:56:26.040Z,10.60
2022-12-09T05:58:55.693Z,10.60
2022-12-09T06:01:24.429Z,10.60
2022-12-09T06:03:53.355Z,10.60
2022-12-09T06:06:23.306Z,10.60
2022-12-09T06:08:56.458Z,10.60
2022-12-09T06:11:24.406Z,10.60
2022-12-09T06:13:52.596Z,10.60
2022-12-09T06:16:21.720Z,10.60
2022-12-09T06:18:50.451Z,10.60
2022-12-09T06:21:19.947Z,10.60
2022-12-09T06:23:48.333Z,10.60
2022-12-09T06:26:19.078Z,10.60
2022-12-09T06:28:46.988Z,10.60
2022-12-09T06:31:14.733Z,10.60
2022-12-09T06:33:59.027Z,10.60
2022-12-09T06:36:30.147Z,10.60
2022-12-09T06:39:05.904Z,10.60
2022-12-09T06:41:37.385Z,10.60
2022-12-09T06:44:04.843Z,10.60
2022-12-09T06:46:32.745Z,10.60
2022-12-09T06:49:00.399Z,10.60
2022-12-09T06:51:28.723Z,10.60
2022-12-09T06:53:56.178Z,10.60
2022-12-09T06:56:24.166Z,10.60
2022-12-09T06:58:52.761Z,10.60
2022-12-09T07:01:23.985Z,10.60
2022-12-09T07:03:54.389Z,10.60
2022-12-09T07:06:33.886Z,10.60
2022-12-09T07:09:05.389Z,10.60
2022-12-09T07:11:33.039Z,10.60
2022-12-09T07:14:01.542Z,10.60
2022-12-09T07:16:29.335Z,10.50
2022-12-09T07:18:58.229Z,10.60
2022-12-09T07:21:26.290Z,10.60
2022-12-09T07:23:54.780Z,10.60
2022-12-09T07:26:25.053Z,10.60
2022-12-09T07:28:52.625Z,10.60
2022-12-09T07:31:27.591Z,10.60
2022-12-09T07:33:58.955Z,10.60
2022-12-09T07:36:28.793Z,10.60
2022-12-09T07:38:57.201Z,10.60
2022-12-09T07:41:25.257Z,10.60
2022-12-09T07:43:53.118Z,10.60
2022-12-09T07:46:22.612Z,10.60
2022-12-09T07:48:50.482Z,10.20
2022-12-09T07:51:18.023Z,9.60
2022-12-09T07:53:47.030Z,9.30
2022-12-09T07:56:19.408Z,9.00
2022-12-09T07:58:48.653Z,8.90
2022-12-09T08:01:18.892Z,8.80
2022-12-09T08:03:48.549Z,8.70
2022-12-09T08:06:19.351Z,8.60
2022-12-09T08:08:47.328Z,8.60
2022-12-09T08:11:18.110Z,8.60
2022-12-09T08:13:46.301Z,8.50
2022-12-09T08:16:16.808Z,8.60
2022-12-09T08:18:54.757Z,8.50
2022-12-09T08:21:47.347Z,8.40
2022-12-09T08:24:23.525Z,8.40
2022-12-09T08:26:51.437Z,8.50
2022-12-09T08:29:20.060Z,8.50
2022-12-09T08:31:48.232Z,8.40
2022-12-09T08:34:16.156Z,8.40
2022-12-09T08:36:44.449Z,8.40
2022-12-09T08:39:13.353Z,8.50
2022-12-09T08:41:41.159Z,8.50
2022-12-09T08:44:18.031Z,8.50
2022-12-09T08:46:48.611Z,8.40
2022-12-09T08:49:19.160Z,8.30
2022-12-09T08:51:48.777Z,8.30
2022-12-09T08:54:18.960Z,8.40
2022-12-09T08:56:48.615Z,8.50
2022-12-09T08:59:16.363Z,8.60
2022-12-09T09:01:44.768Z,8.70
2022-12-09T09:04:18.711Z,8.70
2022-12-09T09:06:50.415Z,8.70
2022-12-09T09:09:20.210Z,8.70
2022-12-09T09:11:48.799Z,8.70
2022-12-09T09:14:16.799Z,8.70
2022-12-09T09:16:48.255Z,8.70
2022-12-09T09:19:18.694Z,8.80
2022-12-09T09:21:46.475Z,8.60
2022-12-09T09:24:18.219Z,8.40
2022-12-09T09:26:46.542Z,8.40
2022-12-09T09:29:17.449Z,8.40
2022-12-09T09:31:48.724Z,8.40
2022-12-09T09:34:20.096Z,8.40
2022-12-09T09:36:48.469Z,8.40
2022-12-09T09:39:16.028Z,8.40
2022-12-09T09:42:07.457Z,8.40
2022-12-09T09:44:53.523Z,8.30
2022-12-09T09:47:25.908Z,8.30
2022-12-09T09:50:03.671Z,8.30
2022-12-09T09:52:32.426Z,8.30
2022-12-09T09:55:14.623Z,8.30
2022-12-09T09:58:05.989Z,8.30
2022-12-09T10:00:50.807Z,8.30
2022-12-09T10:03:31.468Z,8.40
2022-12-09T10:06:07.814Z,8.40
2022-12-09T10:08:45.753Z,8.30
2022-12-09T10:11:32.154Z,8.30
2022-12-09T10:14:20.383Z,8.30
2022-12-09T10:17:07.665Z,8.40
2022-12-09T10:19:47.802Z,8.20
2022-12-09T10:22:21.365Z,8.30
2022-12-09T10:24:52.498Z,8.20
2022-12-09T10:27:26.456Z,8.20
2022-12-09T10:30:05.899Z,8.30
2022-12-09T10:32:39.234Z,8.30
2022-12-09T10:35:19.682Z,8.20
2022-12-09T10:37:52.688Z,8.20
2022-12-09T10:40:40.848Z,8.20
2022-12-09T10:43:42.329Z,8.20
2022-12-09T10:46:19.574Z,8.30
2022-12-09T10:48:48.984Z,8.20
2022-12-09T10:51:18.859Z,8.20
2022-12-09T10:54:00.016Z,8.20
2022-12-09T10:56:29.223Z,8.10
2022-12-09T10:59:18.338Z,8.10
2022-12-09T11:02:17.513Z,8.10
2022-12-09T11:04:47.206Z,8.20
2022-12-09T11:07:28.154Z,8.20
2022-12-09T11:09:58.816Z,8.20
2022-12-09T11:12:34.786Z,8.20
2022-12-09T11:15:24.743Z,8.10
2022-12-09T11:18:07.935Z,8.10
2022-12-09T11:20:36.691Z,8.10
2022-12-09T11:23:06.241Z,8.20
2022-12-09T11:25:36.319Z,8.10
2022-12-09T11:28:16.511Z,8.00
2022-12-09T11:31:27.006Z,8.00
2022-12-09T11:34:00.255Z,8.00
2022-12-09T11:36:36.815Z,8.10
2022-12-09T11:39:33.752Z,8.10
2022-12-09T11:42:17.686Z,8.10
2022-12-09T11:44:48.536Z,8.10
2022-12-09T11:48:13.537Z,8.10
2022-12-09T11:50:33.591Z,8.10
2022-12-09T11:53:13.120Z,8.10
2022-12-09T11:56:00.388Z,8.10
2022-12-09T11:58:38.173Z,8.10
2022-12-09T12:01:42.961Z,8.10
2022-12-09T12:04:14.256Z,8.10
2022-12-09T12:06:52.041Z,8.10
2022-12-09T12:09:45.148Z,8.10
2022-12-09T12:12:27.900Z,8.20
2022-12-09T12:14:59.005Z,8.20
2022-12-09T12:17:39.813Z,8.20
2022-12-09T12:20:12.531Z,8.30
2022-12-09T12:23:01.793Z,8.50
2022-12-09T12:25:38.398Z,8.80
2022-12-09T12:28:20.360Z,8.90
2022-12-09T12:30:58.460Z,9.20
2022-12-09T12:36:45.768Z,9.10
2022-12-09T12:39:20.781Z,9.10
2022-12-09T12:42:13.756Z,9.10
2022-12-09T12:45:21.856Z,9.10
2022-12-09T12:48:24.435Z,9.10
2022-12-09T12:51:20.844Z,9.10
2022-12-09T12:54:25.849Z,9.10
2022-12-09T12:57:28.540Z,9.10
2022-12-09T13:00:22.366Z,9.10
2022-12-09T13:03:07.484Z,9.10
2022-12-09T13:05:43.576Z,9.10
2022-12-09T13:08:46.111Z,9.20
2022-12-09T13:11:37.467Z,9.20
2022-12-09T13:14:11.649Z,9.20
2022-12-09T13:16:41.439Z,9.10
2022-12-09T13:19:39.923Z,9.30
2022-12-09T13:22:16.143Z,9.50
2022-12-09T13:24:53.066Z,9.60
2022-12-09T13:27:34.070Z,9.70
2022-12-09T13:30:14.263Z,9.70
2022-12-09T13:33:16.032Z,9.80
2022-12-09T13:36:22.564Z,9.80
2022-12-09T13:38:50.982Z,9.80
2022-12-09T13:41:27.530Z,9.80
2022-12-09T13:44:06.515Z,9.80
2022-12-09T13:46:35.003Z,9.80
2022-12-09T13:49:26.524Z,9.90
2022-12-09T13:51:55.615Z,9.90
2022-12-09T13:54:26.237Z,9.90
2022-12-09T13:57:29.799Z,9.90
2022-12-09T14:00:03.833Z,9.90
2022-12-09T14:02:56.880Z,9.90
2022-12-09T14:05:28.525Z,10.00
2022-12-09T14:08:08.455Z,9.90
2022-12-09T14:10:35.892Z,9.90
2022-12-09T14:13:19.674Z,10.00
2022-12-09T14:16:08.496Z,10.00
2022-12-09T14:18:36.472Z,9.90
2022-12-09T14:21:18.897Z,9.90
2022-12-09T14:24:08.872Z,10.00
2022-12-09T14:26:38.793Z,9.90
2022-12-09T14:29:08.111Z,9.90
2022-12-09T14:31:56.631Z,10.00
2022-12-09T14:34:38.499Z,9.90
2022-12-09T14:37:35.532Z,10.00
2022-12-09T14:40:36.943Z,10.00
2022-12-09T14:43:26.321Z,10.00
2022-12-09T14:46:02.244Z,10.00
2022-12-09T14:48:37.942Z,10.00
2022-12-09T14:51:17.018Z,10.00
2022-12-09T14:53:56.841Z,10.00
2022-12-09T14:56:26.771Z,10.00
2022-12-09T14:58:59.288Z,10.00
2022-12-09T15:01:26.799Z,10.00
2022-12-09T15:04:01.824Z,10.00
2022-12-09T15:06:32.392Z,10.00
2022-12-09T15:09:00.099Z,10.00
2022-12-09T15:11:34.907Z,10.00
2022-12-09T15:14:26.435Z,10.00
2022-12-09T15:16:56.100Z,10.00
2022-12-09T15:19:59.076Z,10.00
2022-12-09T15:22:26.638Z,10.00
2022-12-09T15:24:54.409Z,10.00
2022-12-09T15:27:24.448Z,10.00
2022-12-09T15:29:53.557Z,10.00
2022-12-09T15:32:29.598Z,10.10
2022-12-09T15:35:19.884Z,10.10
2022-12-09T15:37:51.239Z,10.10
2022-12-09T15:40:22.254Z,10.10
2022-12-09T15:42:53.780Z,10.10
2022-12-09T15:45:33.994Z,10.00
2022-12-09T15:48:24.221Z,10.00
2022-12-09T15:50:59.787Z,10.10
2022-12-09T15:53:36.095Z,10.00
2022-12-09T15:56:30.459Z,10.00
2022-12-09T15:59:03.233Z,10.20
2022-12-09T16:01:32.882Z,10.60
2022-12-09T16:04:02.483Z,10.70
2022-12-09T16:06:33.800Z,10.60
2022-12-09T16:09:02.241Z,10.50
2022-12-09T16:11:45.547Z,10.50
2022-12-09T16:14:13.947Z,10.40
2022-12-09T16:17:01.485Z,10.40
2022-12-09T16:19:31.649Z,10.30
2022-12-09T16:22:03.376Z,10.20
2022-12-09T16:24:50.785Z,10.20
2022-12-09T16:27:25.656Z,10.30
2022-12-09T16:30:02.530Z,10.20
2022-12-09T16:32:34.304Z,10.20
2022-12-09T16:35:11.185Z,10.20
2022-12-09T16:37:56.160Z,10.20
2022-12-09T16:40:26.231Z,10.20
2022-12-09T16:43:15.054Z,10.20
2022-12-09T16:45:51.064Z,10.20
2022-12-09T16:48:20.353Z,10.20
2022-12-09T16:51:12.314Z,10.20
2022-12-09T16:53:43.663Z,10.20
2022-12-09T16:56:18.580Z,10.20
2022-12-09T16:58:46.555Z,10.20
2022-12-09T17:01:16.561Z,10.20
2022-12-09T17:04:00.628Z,10.20
2022-12-09T17:06:28.668Z,10.20
2022-12-09T17:08:56.127Z,10.20
2022-12-09T17:11:23.532Z,10.20
2022-12-09T17:13:51.022Z,10.20
2022-12-09T17:16:21.948Z,10.20
2022-12-09T17:18:49.978Z,10.20
2022-12-09T17:21:17.475Z,10.20
2022-12-09T17:23:44.853Z,10.20
2022-12-09T17:26:15.793Z,10.20
2022-12-09T17:28:44.625Z,10.20
2022-12-09T17:31:14.778Z,10.40
2022-12-09T17:33:43.833Z,10.30
2022-12-09T17:36:13.069Z,10.30
2022-12-09T17:38:40.912Z,10.30
2022-12-09T17:41:11.009Z,10.30
2022-12-09T17:43:38.364Z,10.30
2022-12-09T17:46:06.492Z,10.20
2022-12-09T17:48:35.159Z,10.20
2022-12-09T17:51:07.484Z,10.20
2022-12-09T17:53:36.890Z,10.20
2022-12-09T17:56:14.069Z,10.20
2022-12-09T17:58:42.079Z,10.10
2022-12-09T18:01:27.756Z,10.10
2022-12-09T18:04:02.868Z,10.20
2022-12-09T18:06:34.779Z,10.20
2022-12-09T18:09:07.181Z,10.20
2022-12-09T18:11:35.778Z,10.20
2022-12-09T18:14:04.042Z,10.20
2022-12-09T18:16:31.439Z,10.20
2022-12-09T18:19:07.782Z,10.20
2022-12-09T18:21:35.128Z,10.20
2022-12-09T18:24:03.003Z,10.20
2022-12-09T18:26:33.123Z,10.20
2022-12-09T18:29:02.925Z,10.20
2022-12-09T18:31:30.527Z,10.20
2022-12-09T18:33:57.919Z,10.10
2022-12-09T18:36:27.443Z,10.10
2022-12-09T18:38:54.897Z,10.20
2022-12-09T18:41:25.021Z,10.10
2022-12-09T18:43:53.917Z,10.10
2022-12-09T18:46:25.982Z,10.10
2022-12-09T18:49:00.863Z,10.10
2022-12-09T18:51:28.977Z,10.10
2022-12-09T18:54:00.233Z,10.10
2022-12-09T18:56:28.089Z,10.20
2022-12-09T18:59:12.054Z,10.10
2022-12-09T19:01:42.737Z,10.10
2022-12-09T19:04:16.165Z,10.10
2022-12-09T19:06:45.826Z,10.10
2022-12-09T19:09:16.850Z,10.10
2022-12-09T19:11:46.345Z,10.10
2022-12-09T19:14:15.625Z,10.10
2022-12-09T19:16:44.023Z,10.10
2022-12-09T19:19:15.381Z,10.10
2022-12-09T19:21:43.383Z,10.10
2022-12-09T19:24:24.055Z,10.10
2022-12-09T19:26:53.846Z,10.10
2022-12-09T19:29:24.527Z,10.10
2022-12-09T19:31:53.798Z,10.10
2022-12-09T19:34:29.538Z,10.10
2022-12-09T19:36:59.517Z,10.10
2022-12-09T19:39:31.246Z,10.10
2022-12-09T19:41:58.731Z,10.10
2022-12-09T19:47:15.110Z,10.10
2022-12-09T19:49:44.357Z,10.10
2022-12-09T19:52:12.648Z,10.10
2022-12-09T19:54:40.098Z,10.10
2022-12-09T19:57:07.415Z,10.20
2022-12-09T19:59:35.575Z,10.20
2022-12-09T20:02:03.102Z,10.10
2022-12-09T20:07:19.257Z,10.20
2022-12-09T20:09:46.707Z,10.10
2022-12-09T20:12:14.582Z,10.10
2022-12-09T20:14:43.060Z,10.10
2022-12-09T20:17:10.740Z,10.10
2022-12-09T20:19:38.071Z,10.10
2022-12-09T20:22:05.710Z,10.10
2022-12-09T20:24:33.094Z,10.20
2022-12-09T20:27:00.773Z,10.10
2022-12-09T20:29:32.413Z,10.10
2022-12-09T20:32:03.451Z,10.20
2022-12-09T20:34:30.826Z,10.10
2022-12-09T20:36:58.352Z,10.10
2022-12-09T20:39:26.137Z,10.10
2022-12-09T20:41:53.530Z,10.20
2022-12-09T20:44:20.917Z,10.20
2022-12-09T20:46:51.864Z,10.20
2022-12-09T20:49:27.124Z,10.20
2022-12-09T20:51:55.287Z,10.10
2022-12-09T20:54:23.271Z,10.20
2022-12-09T20:56:51.020Z,10.20
2022-12-09T20:59:18.620Z,10.20
2022-12-09T21:01:47.306Z,10.10
2022-12-09T21:04:15.614Z,10.10
2022-12-09T21:06:43.737Z,10.10
2022-12-09T21:09:18.927Z,10.10
2022-12-09T21:11:48.366Z,10.20
2022-12-09T21:14:20.326Z,10.10
2022-12-09T21:16:50.618Z,10.20
2022-12-09T21:19:24.981Z,10.10
2022-12-09T21:21:53.628Z,10.10
2022-12-09T21:24:23.171Z,10.10
2022-12-09T21:26:53.401Z,10.10
2022-12-09T21:29:21.079Z,10.10
2022-12-09T21:31:50.429Z,10.10
2022-12-09T21:34:18.052Z,10.10
2022-12-09T21:36:45.601Z,10.10
2022-12-09T21:39:15.300Z,10.10
2022-12-09T21:41:43.550Z,10.10
2022-12-09T21:44:18.288Z,10.10
2022-12-09T21:46:46.411Z,10.10
2022-12-09T21:49:14.940Z,10.10
2022-12-09T21:51:43.498Z,10.10
2022-12-09T21:54:10.936Z,10.10
2022-12-09T21:56:38.423Z,10.10
2022-12-09T21:59:07.463Z,10.10
2022-12-09T22:01:38.098Z,10.10
2022-12-09T22:04:08.270Z,10.10
2022-12-09T22:06:36.189Z,10.10
2022-12-09T22:09:05.581Z,10.10
2022-12-09T22:11:35.597Z,10.10
2022-12-09T22:14:03.927Z,10.10
2022-12-09T22:16:41.264Z,10.10
2022-12-09T22:19:13.686Z,10.10
2022-12-09T22:21:41.039Z,10.10
2022-12-09T22:24:09.386Z,10.10
2022-12-09T22:26:37.294Z,10.10
2022-12-09T22:29:06.434Z,10.10
2022-12-09T22:31:36.790Z,10.10
2022-12-09T22:34:07.865Z,10.10
2022-12-09T22:36:37.025Z,10.10
2022-12-09T22:39:11.777Z,10.10
2022-12-09T22:41:39.051Z,10.10
2022-12-09T22:44:06.329Z,10.10
2022-12-09T22:46:34.580Z,10.20
2022-12-09T22:49:04.743Z,10.10
2022-12-09T22:51:34.445Z,10.20
2022-12-09T22:54:04.340Z,10.20
2022-12-09T22:56:31.764Z,10.20
2022-12-09T22:59:00.030Z,10.10
2022-12-09T23:01:30.840Z,10.10
2022-12-09T23:04:00.015Z,10.20
2022-12-09T23:06:28.477Z,10.10
2022-12-09T23:08:56.077Z,10.10
2022-12-09T23:11:25.717Z,10.10
2022-12-09T23:13:54.137Z,10.10
2022-12-09T23:16:23.975Z,10.10
2022-12-09T23:18:52.230Z,10.10
2022-12-09T23:21:22.741Z,10.10
2022-12-09T23:23:58.817Z,10.10
2022-12-09T23:26:29.472Z,10.10
2022-12-09T23:28:59.426Z,10.10
2022-12-09T23:31:31.426Z,10.10
2022-12-09T23:34:00.216Z,10.10
2022-12-09T23:36:33.647Z,10.10
2022-12-09T23:39:02.613Z,10.20
2022-12-09T23:41:31.272Z,10.10
2022-12-09T23:43:58.945Z,10.10
2022-12-09T23:46:28.290Z,10.20
2022-12-09T23:48:56.515Z,10.10
2022-12-09T23:51:26.869Z,10.10
2022-12-09T23:53:59.141Z,10.10
2022-12-09T23:56:30.393Z,10.10
2022-12-09T23:59:03.416Z,10.10
